createdAt,value
2022-11-17T00:00:35.813Z,7.82
2022-11-17T00:03:02.657Z,9.98
2022-11-17T00:05:29.503Z,8.52
2022-11-17T00:07:56.187Z,7.13
2022-11-17T00:10:22.881Z,6.82
2022-11-17T00:13:08.155Z,10.18
2022-11-17T00:15:34.833Z,8.57
2022-11-17T00:18:20.270Z,11.95
2022-11-17T00:21:05.847Z,9.38
2022-11-17T00:23:48.298Z,13.52
2022-11-17T00:26:22.840Z,14.65
2022-11-17T00:28:57.528Z,31.52
2022-11-17T00:31:44.228Z,17.95
2022-11-17T00:34:21.666Z,16.00
2022-11-17T00:36:53.393Z,13.85
2022-11-17T00:39:21.789Z,10.85
2022-11-17T00:41:48.852Z,8.60
2022-11-17T00:44:16.022Z,7.38
2022-11-17T00:46:43.019Z,6.70
2022-11-17T00:49:10.876Z,6.60
2022-11-17T00:51:38.016Z,7.25
2022-11-17T00:54:05.654Z,8.80
2022-11-17T00:56:32.432Z,7.18
2022-11-17T00:58:59.632Z,9.07
2022-11-17T01:01:27.167Z,16.50
2022-11-17T01:04:03.332Z,16.30
2022-11-17T01:06:38.995Z,23.50
2022-11-17T01:09:20.513Z,17.65
2022-11-17T01:11:48.457Z,52.90
2022-11-17T01:14:18.307Z,45.33
2022-11-17T01:16:45.418Z,33.63
2022-11-17T01:19:16.573Z,21.30
2022-11-17T01:21:43.388Z,17.52
2022-11-17T01:24:11.557Z,15.65
2022-11-17T01:26:39.287Z,9.35
2022-11-17T01:29:06.803Z,8.15
2022-11-17T01:31:36.231Z,11.50
2022-11-17T01:34:03.105Z,6.68
2022-11-17T01:36:53.028Z,8.43
2022-11-17T01:39:19.807Z,9.23
2022-11-17T01:41:46.456Z,6.78
2022-11-17T01:44:36.073Z,9.77
2022-11-17T01:47:04.596Z,14.45
2022-11-17T01:49:31.264Z,25.48
2022-11-17T01:52:03.652Z,23.58
2022-11-17T01:54:31.216Z,17.02
2022-11-17T01:57:01.132Z,6.68
2022-11-17T01:59:36.738Z,8.25
2022-11-17T02:02:03.437Z,10.13
2022-11-17T02:04:35.192Z,9.27
2022-11-17T02:07:13.659Z,8.27
2022-11-17T02:09:40.787Z,10.07
2022-11-17T02:12:09.513Z,9.48
2022-11-17T02:14:36.417Z,11.57
2022-11-17T02:17:11.538Z,6.53
2022-11-17T02:19:42.354Z,7.85
2022-11-17T02:22:39.680Z,10.30
2022-11-17T02:25:27.136Z,10.27
2022-11-17T02:28:09.329Z,6.90
2022-11-17T02:30:56.153Z,10.90
2022-11-17T02:33:48.752Z,9.35
2022-11-17T02:36:58.912Z,6.82
2022-11-17T02:39:44.313Z,6.90
2022-11-17T02:42:48.925Z,6.85
2022-11-17T02:45:21.321Z,7.75
2022-11-17T02:47:48.616Z,7.13
2022-11-17T02:50:15.449Z,4.63
2022-11-17T02:52:42.154Z,4.05
2022-11-17T02:55:10.306Z,6.38
2022-11-17T02:57:39.396Z,9.63
2022-11-17T03:00:11.031Z,6.22
2022-11-17T03:03:03.177Z,7.45
2022-11-17T03:05:43.199Z,6.72
2022-11-17T03:08:33.453Z,5.70
2022-11-17T03:11:03.041Z,5.93
2022-11-17T03:13:47.979Z,7.25
2022-11-17T03:16:33.416Z,6.00
2022-11-17T03:19:21.272Z,6.70
2022-11-17T03:22:10.415Z,7.65
2022-11-17T03:24:40.719Z,5.70
2022-11-17T03:27:15.366Z,4.95
2022-11-17T03:29:44.676Z,6.32
2022-11-17T03:32:11.733Z,3.55
2022-11-17T03:34:46.179Z,8.25
2022-11-17T03:37:14.055Z,6.13
2022-11-17T03:39:46.909Z,4.18
2022-11-17T03:42:18.677Z,3.50
2022-11-17T03:44:49.475Z,5.78
2022-11-17T03:47:17.814Z,8.10
2022-11-17T03:50:28.944Z,9.70
2022-11-17T03:52:55.767Z,8.70
2022-11-17T03:55:27.376Z,8.95
2022-11-17T03:57:54.764Z,15.60
2022-11-17T04:00:21.508Z,14.48
2022-11-17T04:02:54.541Z,51.90
2022-11-17T04:05:21.387Z,32.53
2022-11-17T04:07:48.984Z,14.27
2022-11-17T04:10:26.265Z,7.38
2022-11-17T04:13:12.275Z,8.40
2022-11-17T04:15:58.795Z,7.18
2022-11-17T04:18:26.035Z,5.78
2022-11-17T04:20:54.601Z,6.45
2022-11-17T04:23:21.650Z,6.30
2022-11-17T04:26:08.493Z,5.53
2022-11-17T04:28:37.795Z,5.85
2022-11-17T04:31:08.708Z,10.30
2022-11-17T04:33:36.769Z,4.57
2022-11-17T04:36:07.050Z,9.25
2022-11-17T04:38:33.787Z,6.60
2022-11-17T04:41:20.938Z,7.70
2022-11-17T04:43:48.048Z,8.23
2022-11-17T04:46:15.789Z,10.45
2022-11-17T04:48:42.665Z,8.93
2022-11-17T04:51:09.407Z,6.22
2022-11-17T04:53:36.290Z,7.63
2022-11-17T04:56:04.173Z,5.65
2022-11-17T04:58:31.108Z,8.50
2022-11-17T05:01:12.179Z,4.30
2022-11-17T05:03:59.838Z,4.68
2022-11-17T05:06:29.062Z,9.93
2022-11-17T05:08:56.755Z,8.20
2022-11-17T05:11:46.956Z,7.80
2022-11-17T05:14:15.781Z,7.53
2022-11-17T05:17:07.410Z,7.00
2022-11-17T05:19:42.229Z,8.98
2022-11-17T05:24:54.682Z,11.32
2022-11-17T05:27:22.927Z,6.63
2022-11-17T05:29:49.765Z,6.53
2022-11-17T05:32:16.603Z,4.90
2022-11-17T05:34:43.319Z,9.85
2022-11-17T05:37:10.290Z,6.25
2022-11-17T05:39:36.988Z,9.25
2022-11-17T05:42:03.868Z,7.22
2022-11-17T05:44:30.648Z,6.47
2022-11-17T05:46:57.302Z,4.78
2022-11-17T05:49:24.144Z,6.28
2022-11-17T05:51:52.896Z,4.20
2022-11-17T05:54:20.457Z,5.78
2022-11-17T05:56:52.814Z,8.23
2022-11-17T05:59:32.299Z,3.80
2022-11-17T06:02:00.602Z,4.55
2022-11-17T06:04:27.308Z,6.60
2022-11-17T06:06:58.829Z,6.38
2022-11-17T06:09:27.429Z,5.68
2022-11-17T06:11:54.193Z,5.45
2022-11-17T06:14:21.024Z,4.90
2022-11-17T06:16:48.841Z,4.25
2022-11-17T06:19:37.684Z,7.78
2022-11-17T06:22:12.062Z,5.97
2022-11-17T06:24:41.048Z,7.57
2022-11-17T06:27:07.764Z,6.82
2022-11-17T06:29:38.188Z,5.18
2022-11-17T06:34:34.943Z,5.40
2022-11-17T06:37:01.643Z,3.83
2022-11-17T06:39:28.272Z,7.10
2022-11-17T06:41:55.004Z,4.35
2022-11-17T06:44:21.611Z,3.83
2022-11-17T06:46:49.284Z,4.72
2022-11-17T06:49:16.161Z,5.57
2022-11-17T06:51:45.333Z,4.20
2022-11-17T06:54:14.701Z,4.68
2022-11-17T06:56:42.298Z,6.07
2022-11-17T06:59:09.107Z,7.82
2022-11-17T07:01:37.181Z,6.20
2022-11-17T07:04:04.058Z,4.50
2022-11-17T07:06:31.896Z,4.60
2022-11-17T07:08:58.608Z,4.72
2022-11-17T07:11:25.386Z,3.28
2022-11-17T07:13:52.043Z,5.00
2022-11-17T07:16:23.586Z,4.45
2022-11-17T07:18:52.710Z,5.00
2022-11-17T07:21:19.478Z,6.13
2022-11-17T07:23:47.088Z,5.50
2022-11-17T07:26:14.371Z,5.05
2022-11-17T07:28:41.120Z,5.40
2022-11-17T07:31:08.978Z,4.57
2022-11-17T07:33:36.381Z,4.60
2022-11-17T07:36:05.660Z,6.68
2022-11-17T07:38:34.109Z,3.25
2022-11-17T07:41:01.259Z,4.57
2022-11-17T07:43:28.069Z,8.02
2022-11-17T07:45:55.027Z,6.30
2022-11-17T07:48:21.842Z,7.30
2022-11-17T07:50:49.148Z,6.47
2022-11-17T07:53:15.923Z,9.88
2022-11-17T07:55:42.706Z,6.88
2022-11-17T07:58:09.428Z,5.10
2022-11-17T08:00:36.747Z,6.07
2022-11-17T08:03:04.330Z,6.68
2022-11-17T08:05:41.646Z,3.50
2022-11-17T08:08:09.952Z,5.93
2022-11-17T08:10:36.779Z,5.13
2022-11-17T08:13:03.560Z,7.45
2022-11-17T08:15:30.865Z,7.47
2022-11-17T08:17:59.133Z,6.35
2022-11-17T08:20:27.892Z,9.65
2022-11-17T08:22:55.307Z,3.63
2022-11-17T08:25:24.076Z,5.18
2022-11-17T08:27:53.785Z,4.47
2022-11-17T08:30:21.010Z,5.80
2022-11-17T08:32:52.194Z,4.15
2022-11-17T08:35:21.015Z,4.88
2022-11-17T08:37:47.908Z,6.03
2022-11-17T08:40:15.257Z,6.57
2022-11-17T08:42:42.073Z,5.10
2022-11-17T08:45:09.249Z,4.32
2022-11-17T08:47:36.869Z,3.58
2022-11-17T08:50:05.583Z,4.68
2022-11-17T08:52:32.751Z,3.45
2022-11-17T08:54:59.533Z,4.43
2022-11-17T08:57:26.421Z,5.50
2022-11-17T08:59:53.256Z,2.78
2022-11-17T09:02:19.968Z,5.72
2022-11-17T09:04:47.713Z,6.43
2022-11-17T09:07:14.489Z,4.07
2022-11-17T09:09:41.430Z,3.05
2022-11-17T09:12:08.310Z,4.50
2022-11-17T09:14:35.198Z,4.20
2022-11-17T09:17:01.900Z,5.35
2022-11-17T09:19:28.639Z,3.72
2022-11-17T09:21:55.711Z,4.43
2022-11-17T09:24:22.495Z,6.45
2022-11-17T09:26:49.346Z,3.60
2022-11-17T09:29:15.997Z,6.18
2022-11-17T09:31:42.801Z,5.13
2022-11-17T09:34:09.558Z,4.30
2022-11-17T09:36:37.140Z,4.63
2022-11-17T09:39:04.348Z,3.13
2022-11-17T09:41:33.910Z,6.78
2022-11-17T09:44:26.934Z,3.42
2022-11-17T09:47:21.703Z,2.45
2022-11-17T09:50:04.427Z,5.18
2022-11-17T09:52:41.954Z,2.83
2022-11-17T09:55:08.607Z,2.75
2022-11-17T09:57:44.916Z,7.22
2022-11-17T10:00:22.210Z,5.03
2022-11-17T10:02:50.752Z,3.65
2022-11-17T10:05:35.371Z,6.03
2022-11-17T10:08:08.227Z,3.92
2022-11-17T10:10:50.641Z,2.13
2022-11-17T10:13:33.765Z,3.30
2022-11-17T10:18:28.099Z,4.43
2022-11-17T10:20:54.872Z,5.82
2022-11-17T10:23:22.254Z,3.80
2022-11-17T10:25:56.636Z,3.90
2022-11-17T10:28:31.820Z,5.15
2022-11-17T10:31:24.770Z,5.22
2022-11-17T10:33:51.622Z,4.00
2022-11-17T10:36:26.256Z,9.25
2022-11-17T10:38:54.543Z,5.28
2022-11-17T10:41:23.905Z,4.82
2022-11-17T10:44:02.127Z,6.65
2022-11-17T10:46:38.204Z,4.18
2022-11-17T10:49:24.463Z,3.60
2022-11-17T10:52:03.870Z,5.78
2022-11-17T10:54:30.664Z,8.73
2022-11-17T10:56:59.971Z,6.57
2022-11-17T10:59:41.248Z,8.38
2022-11-17T11:02:29.704Z,8.75
2022-11-17T11:05:08.682Z,7.57
2022-11-17T11:07:36.002Z,5.82
2022-11-17T11:10:19.077Z,13.50
2022-11-17T11:12:53.544Z,6.63
2022-11-17T11:15:22.078Z,5.10
2022-11-17T11:17:48.801Z,4.55
2022-11-17T11:20:18.399Z,9.88
2022-11-17T11:22:45.867Z,5.38
2022-11-17T11:25:24.542Z,7.68
2022-11-17T11:28:11.462Z,10.05
2022-11-17T11:30:43.975Z,4.25
2022-11-17T11:33:23.983Z,3.22
2022-11-17T11:36:15.100Z,6.70
2022-11-17T11:38:44.778Z,3.95
2022-11-17T11:41:21.319Z,5.32
2022-11-17T11:44:03.046Z,5.75
2022-11-17T11:47:04.032Z,4.00
2022-11-17T11:49:37.560Z,3.05
2022-11-17T11:52:06.762Z,4.68
2022-11-17T11:54:50.608Z,4.53
2022-11-17T11:57:23.058Z,3.92
2022-11-17T11:59:53.455Z,3.95
2022-11-17T12:02:46.513Z,1.70
2022-11-17T12:05:19.583Z,3.55
2022-11-17T12:10:36.562Z,4.63
2022-11-17T12:13:04.297Z,9.00
2022-11-17T12:15:33.745Z,8.98
2022-11-17T12:18:01.681Z,4.38
2022-11-17T12:20:30.833Z,6.22
2022-11-17T12:23:22.218Z,4.70
2022-11-17T12:25:54.323Z,10.20
2022-11-17T12:28:35.780Z,4.55
2022-11-17T12:31:10.521Z,5.10
2022-11-17T12:33:52.447Z,7.35
2022-11-17T12:36:30.076Z,5.38
2022-11-17T12:38:58.726Z,5.50
2022-11-17T12:41:47.217Z,6.07
2022-11-17T12:44:32.289Z,8.30
2022-11-17T12:47:10.228Z,6.70
2022-11-17T12:50:06.727Z,6.63
2022-11-17T12:53:13.431Z,6.13
2022-11-17T12:55:58.852Z,9.00
2022-11-17T12:58:25.575Z,9.90
2022-11-17T13:00:58.138Z,6.50
2022-11-17T13:03:49.486Z,3.85
2022-11-17T13:09:07.937Z,5.28
2022-11-17T13:11:35.244Z,7.50
2022-11-17T13:14:16.526Z,2.70
2022-11-17T13:16:46.561Z,4.40
2022-11-17T13:19:28.138Z,7.88
2022-11-17T13:22:03.680Z,9.75
2022-11-17T13:24:32.456Z,3.30
2022-11-17T13:27:03.692Z,8.95
2022-11-17T13:29:30.431Z,5.10
2022-11-17T13:32:16.457Z,6.85
2022-11-17T13:34:57.141Z,8.15
2022-11-17T13:37:25.837Z,7.85
2022-11-17T13:40:19.864Z,9.80
2022-11-17T13:42:46.650Z,7.90
2022-11-17T13:45:16.820Z,11.82
2022-11-17T13:47:48.718Z,6.25
2022-11-17T13:50:31.542Z,3.22
2022-11-17T13:53:22.723Z,7.38
2022-11-17T13:55:49.872Z,4.47
2022-11-17T13:58:38.185Z,5.93
2022-11-17T14:01:04.993Z,5.25
2022-11-17T14:03:39.841Z,1.45
2022-11-17T14:06:09.051Z,5.75
2022-11-17T14:08:36.987Z,3.25
2022-11-17T14:11:12.817Z,5.70
2022-11-17T14:13:48.450Z,7.20
2022-11-17T14:16:20.414Z,7.07
2022-11-17T14:18:59.366Z,6.77
2022-11-17T14:21:26.539Z,4.53
2022-11-17T14:24:05.367Z,8.65
2022-11-17T14:26:32.373Z,5.97
2022-11-17T14:29:02.243Z,9.88
2022-11-17T14:31:30.864Z,7.82
2022-11-17T14:33:58.026Z,10.30
2022-11-17T14:36:24.789Z,8.52
2022-11-17T14:38:51.730Z,6.78
2022-11-17T14:41:19.311Z,7.25
2022-11-17T14:43:46.210Z,4.82
2022-11-17T14:46:26.274Z,9.45
2022-11-17T14:48:53.686Z,6.20
2022-11-17T14:51:20.522Z,7.10
2022-11-17T14:53:47.866Z,5.78
2022-11-17T14:56:17.801Z,7.85
2022-11-17T14:58:45.458Z,7.28
2022-11-17T15:01:24.088Z,8.50
2022-11-17T15:03:52.912Z,7.18
2022-11-17T15:06:20.444Z,8.77
2022-11-17T15:08:48.266Z,3.67
2022-11-17T15:11:17.091Z,5.70
2022-11-17T15:13:44.092Z,8.02
2022-11-17T15:16:11.101Z,7.13
2022-11-17T15:18:38.188Z,4.43
2022-11-17T15:21:07.289Z,4.07
2022-11-17T15:23:36.838Z,7.30
2022-11-17T15:26:08.116Z,6.43
2022-11-17T15:28:34.962Z,5.47
2022-11-17T15:31:12.045Z,6.03
2022-11-17T15:33:42.409Z,9.32
2022-11-17T15:36:11.779Z,4.25
2022-11-17T15:38:39.365Z,4.57
2022-11-17T15:41:07.158Z,5.22
2022-11-17T15:43:36.021Z,7.60
2022-11-17T15:46:08.227Z,6.72
2022-11-17T15:48:38.774Z,4.60
2022-11-17T15:51:06.471Z,6.20
2022-11-17T15:53:35.160Z,6.93
2022-11-17T15:56:16.589Z,6.93
2022-11-17T15:58:43.953Z,10.35
2022-11-17T16:01:15.800Z,7.45
2022-11-17T16:03:44.193Z,7.15
2022-11-17T16:06:11.766Z,8.88
2022-11-17T16:08:38.714Z,6.65
2022-11-17T16:11:05.954Z,13.00
2022-11-17T16:13:32.990Z,6.63
2022-11-17T16:15:59.782Z,8.15
2022-11-17T16:18:26.674Z,4.63
2022-11-17T16:20:53.529Z,4.47
2022-11-17T16:23:20.653Z,4.25
2022-11-17T16:25:48.263Z,6.07
2022-11-17T16:28:16.874Z,5.25
2022-11-17T16:30:43.863Z,3.65
2022-11-17T16:33:12.398Z,5.40
2022-11-17T16:35:40.498Z,3.55
2022-11-17T16:38:08.158Z,6.10
2022-11-17T16:40:37.648Z,2.95
2022-11-17T16:43:04.375Z,4.85
2022-11-17T16:45:31.138Z,8.63
2022-11-17T16:47:58.873Z,6.43
2022-11-17T16:50:25.616Z,3.35
2022-11-17T16:52:52.525Z,6.38
2022-11-17T16:55:19.387Z,12.00
2022-11-17T16:57:46.228Z,4.30
2022-11-17T17:00:14.983Z,6.18
2022-11-17T17:02:41.827Z,10.07
2022-11-17T17:05:10.056Z,8.05
2022-11-17T17:07:37.458Z,8.73
2022-11-17T17:10:04.379Z,6.40
2022-11-17T17:12:31.057Z,8.48
2022-11-17T17:14:57.775Z,7.55
2022-11-17T17:17:24.660Z,6.43
2022-11-17T17:19:51.446Z,9.68
2022-11-17T17:22:18.117Z,8.32
2022-11-17T17:24:44.810Z,6.35
2022-11-17T17:27:11.567Z,4.85
2022-11-17T17:29:38.400Z,9.65
2022-11-17T17:32:05.225Z,7.63
2022-11-17T17:34:32.006Z,7.60
2022-11-17T17:36:59.033Z,15.00
2022-11-17T17:39:25.777Z,17.38
2022-11-17T17:41:52.571Z,13.90
2022-11-17T17:44:19.771Z,12.23
2022-11-17T17:46:47.423Z,10.48
2022-11-17T17:49:14.782Z,10.25
2022-11-17T17:51:44.476Z,9.98
2022-11-17T17:54:17.074Z,8.65
2022-11-17T17:56:44.031Z,7.93
2022-11-17T17:59:10.786Z,8.77
2022-11-17T18:01:40.434Z,10.43
2022-11-17T18:04:12.640Z,10.77
2022-11-17T18:06:46.028Z,9.05
2022-11-17T18:09:15.701Z,8.90
2022-11-17T18:11:47.756Z,12.65
2022-11-17T18:14:14.545Z,13.73
2022-11-17T18:16:41.223Z,15.75
2022-11-17T18:19:09.299Z,31.63
2022-11-17T18:21:36.561Z,30.00
2022-11-17T18:24:04.110Z,23.38
2022-11-17T18:26:33.179Z,28.60
2022-11-17T18:29:02.248Z,25.83
2022-11-17T18:31:30.880Z,15.13
2022-11-17T18:33:59.634Z,11.77
2022-11-17T18:36:27.494Z,11.77
2022-11-17T18:38:54.759Z,9.40
2022-11-17T18:41:22.195Z,11.85
2022-11-17T18:43:49.125Z,11.90
2022-11-17T18:46:18.264Z,8.70
2022-11-17T18:48:46.336Z,8.07
2022-11-17T18:51:19.614Z,8.75
2022-11-17T18:53:51.722Z,7.43
2022-11-17T18:56:24.245Z,11.23
2022-11-17T18:58:50.976Z,16.95
2022-11-17T19:01:19.148Z,20.73
2022-11-17T19:03:47.924Z,8.48
2022-11-17T19:06:15.194Z,10.18
2022-11-17T19:08:42.364Z,7.35
2022-11-17T19:11:10.568Z,6.55
2022-11-17T19:13:39.286Z,9.35
2022-11-17T19:16:14.665Z,10.60
2022-11-17T19:18:42.174Z,11.70
2022-11-17T19:21:11.468Z,7.30
2022-11-17T19:23:46.576Z,7.32
2022-11-17T19:26:24.948Z,9.73
2022-11-17T19:28:55.603Z,8.55
2022-11-17T19:31:22.629Z,6.78
2022-11-17T19:33:50.181Z,9.57
2022-11-17T19:36:20.250Z,8.48
2022-11-17T19:38:51.809Z,11.75
2022-11-17T19:41:26.182Z,11.27
2022-11-17T19:43:56.932Z,7.97
2022-11-17T19:46:24.750Z,9.40
2022-11-17T19:48:51.628Z,8.55
2022-11-17T19:51:32.311Z,10.15
2022-11-17T19:54:01.841Z,13.82
2022-11-17T19:56:28.745Z,11.43
2022-11-17T19:58:55.805Z,17.40
2022-11-17T20:01:24.806Z,13.18
2022-11-17T20:03:51.799Z,12.68
2022-11-17T20:06:20.967Z,14.32
2022-11-17T20:08:48.337Z,8.85
2022-11-17T20:11:14.997Z,10.15
2022-11-17T20:13:41.810Z,9.85
2022-11-17T20:16:12.668Z,13.60
2022-11-17T20:18:41.753Z,15.40
2022-11-17T20:21:09.774Z,21.98
2022-11-17T20:23:37.652Z,17.38
2022-11-17T20:26:10.262Z,17.58
2022-11-17T20:28:37.793Z,13.25
2022-11-17T20:31:13.012Z,9.95
2022-11-17T20:33:41.543Z,8.25
2022-11-17T20:36:09.839Z,10.20
2022-11-17T20:38:36.715Z,9.20
2022-11-17T20:41:04.387Z,7.28
2022-11-17T20:43:32.083Z,8.57
2022-11-17T20:45:59.129Z,5.53
2022-11-17T20:48:27.508Z,11.82
2022-11-17T20:51:09.445Z,8.98
2022-11-17T20:53:36.585Z,13.00
2022-11-17T20:56:05.907Z,12.02
2022-11-17T20:58:33.159Z,9.75
2022-11-17T21:01:06.883Z,10.43
2022-11-17T21:03:33.975Z,8.90
2022-11-17T21:06:04.614Z,9.40
2022-11-17T21:08:33.587Z,9.20
2022-11-17T21:11:02.513Z,8.15
2022-11-17T21:13:30.529Z,9.05
2022-11-17T21:16:17.606Z,10.10
2022-11-17T21:18:48.127Z,8.52
2022-11-17T21:21:15.603Z,7.82
2022-11-17T21:23:43.998Z,9.63
2022-11-17T21:26:17.029Z,10.38
2022-11-17T21:28:45.413Z,8.88
2022-11-17T21:31:14.421Z,10.40
2022-11-17T21:33:42.169Z,12.90
2022-11-17T21:36:11.127Z,12.30
2022-11-17T21:38:38.428Z,11.45
2022-11-17T21:41:13.811Z,10.65
2022-11-17T21:43:41.818Z,14.10
2022-11-17T21:46:36.152Z,11.93
2022-11-17T21:49:03.265Z,12.43
2022-11-17T21:51:33.378Z,14.10
2022-11-17T21:54:02.485Z,10.77
2022-11-17T21:56:29.608Z,11.85
2022-11-17T21:59:00.680Z,12.20
2022-11-17T22:01:27.991Z,15.60
2022-11-17T22:03:54.898Z,9.15
2022-11-17T22:06:23.452Z,12.05
2022-11-17T22:08:50.828Z,8.57
2022-11-17T22:11:35.380Z,10.55
2022-11-17T22:14:04.076Z,9.18
2022-11-17T22:16:31.061Z,13.73
2022-11-17T22:18:57.990Z,14.13
2022-11-17T22:21:25.011Z,16.15
2022-11-17T22:23:51.788Z,17.65
2022-11-17T22:26:18.824Z,13.75
2022-11-17T22:28:45.865Z,14.18
2022-11-17T22:31:12.880Z,11.30
2022-11-17T22:33:40.159Z,15.77
2022-11-17T22:36:07.752Z,13.13
2022-11-17T22:38:34.552Z,12.98
2022-11-17T22:41:02.621Z,12.65
2022-11-17T22:43:30.310Z,14.82
2022-11-17T22:45:57.770Z,11.32
2022-11-17T22:48:24.708Z,13.98
2022-11-17T22:50:51.622Z,18.48
2022-11-17T22:53:18.748Z,21.05
2022-11-17T22:55:45.684Z,18.48
2022-11-17T22:58:15.857Z,18.50
2022-11-17T23:00:43.218Z,14.40
2022-11-17T23:03:10.726Z,25.63
2022-11-17T23:05:37.863Z,22.35
2022-11-17T23:08:09.554Z,17.27
2022-11-17T23:10:37.304Z,19.33
2022-11-17T23:13:04.452Z,10.07
2022-11-17T23:15:32.452Z,12.93
2022-11-17T23:17:59.318Z,10.57
2022-11-17T23:20:26.099Z,13.93
2022-11-17T23:22:54.042Z,13.30
2022-11-17T23:25:21.240Z,14.52
2022-11-17T23:27:48.141Z,15.40
2022-11-17T23:30:14.963Z,11.00
2022-11-17T23:32:41.858Z,13.25
2022-11-17T23:35:09.141Z,14.25
2022-11-17T23:37:35.877Z,12.13
2022-11-17T23:40:02.543Z,16.17
2022-11-17T23:42:32.459Z,14.70
2022-11-17T23:44:59.740Z,10.27
2022-11-17T23:47:26.535Z,15.75
2022-11-17T23:49:53.243Z,12.02
2022-11-17T23:52:20.064Z,12.35
2022-11-17T23:54:46.923Z,15.32
2022-11-17T23:57:13.773Z,10.50
2022-11-17T23:59:40.558Z,13.18
